Time;durP1;ratioP1;P1;durP2;ratioP2;P2;SDS_P1;SDS_P2;PMS_P1;PMS_P2;Temp;Humidity;BMP_temperature;BMP_pressure;BME280_temperature;BME280_humidity;BME280_pressure;Samples;Min_cycle;Max_cycle;Signal;HPM_P1;HPM_P2
2023/04/03 00:00:07;;;;;;;8.83;7.70;;;;;;;-0.81;100.00;102061.44;703645;28;1471;-60
2023/04/03 00:00:29;;;;;;;8.82;7.93;;;;;;;-0.86;100.00;102065.38;701968;28;978;-60
2023/04/03 00:00:50;;;;;;;8.98;7.72;;;;;;;-0.88;100.00;102057.56;698880;28;4459;-60
2023/04/03 00:01:10;;;;;;;8.80;7.10;;;;;;;-0.86;100.00;102060.22;699963;28;888;-60
2023/04/03 00:01:31;;;;;;;8.52;7.07;;;;;;;-0.87;100.00;102056.78;698864;28;1392;-60
2023/04/03 00:01:51;;;;;;;8.47;7.03;;;;;;;-0.86;100.00;102062.81;699606;28;1459;-60
2023/04/03 00:02:14;;;;;;;8.68;7.18;;;;;;;-0.88;100.00;102057.56;700618;28;1046;-60
2023/04/03 00:02:35;;;;;;;8.85;7.40;;;;;;;-0.88;100.00;102061.84;700620;28;895;-60
2023/04/03 00:02:55;;;;;;;8.73;7.38;;;;;;;-0.85;100.00;102054.31;701681;28;1566;-60
2023/04/03 00:03:17;;;;;;;8.90;7.53;;;;;;;-0.85;100.00;102062.03;702033;28;1060;-59
2023/04/03 00:03:38;;;;;;;9.82;7.57;;;;;;;-0.87;100.00;102063.63;702782;28;797;-60
2023/04/03 00:03:58;;;;;;;9.98;7.85;;;;;;;-0.83;100.00;102054.41;702314;28;4346;-60
2023/04/03 00:04:19;;;;;;;10.55;7.80;;;;;;;-0.82;100.00;102059.66;703558;28;841;-60
2023/04/03 00:04:39;;;;;;;9.47;7.87;;;;;;;-0.81;100.00;102061.44;702892;28;1252;-60
2023/04/03 00:05:00;;;;;;;9.55;7.50;;;;;;;-0.82;100.00;102059.66;702864;28;1449;-60
2023/04/03 00:05:20;;;;;;;9.07;7.33;;;;;;;-0.83;100.00;102052.75;703699;28;780;-60
2023/04/03 00:05:41;;;;;;;8.50;7.25;;;;;;;-0.85;100.00;102059.44;702579;28;1049;-60
2023/04/03 00:06:02;;;;;;;9.90;7.83;;;;;;;-0.86;100.00;102065.38;703621;28;1901;-60
2023/04/03 00:06:25;;;;;;;9.57;7.95;;;;;;;-0.85;100.00;102056.88;703045;28;1151;-60
2023/04/03 00:06:45;;;;;;;9.45;7.65;;;;;;;-0.83;100.00;102060.47;701917;28;4387;-60
2023/04/03 00:07:05;;;;;;;9.25;7.60;;;;;;;-0.83;100.00;102060.47;704228;28;853;-60
2023/04/03 00:07:26;;;;;;;10.07;7.83;;;;;;;-0.83;100.00;102059.56;703749;28;955;-61
2023/04/03 00:07:46;;;;;;;9.75;7.70;;;;;;;-0.82;100.00;102062.22;702388;28;1638;-60
2023/04/03 00:08:09;;;;;;;9.90;7.60;;;;;;;-0.82;100.00;102062.22;703148;28;1301;-60
2023/04/03 00:08:32;;;;;;;9.25;7.43;;;;;;;-0.82;100.00;102059.66;704341;28;1301;-60
2023/04/03 00:08:53;;;;;;;8.85;7.40;;;;;;;-0.80;100.00;102057.16;699609;28;1436;-60
2023/04/03 00:09:13;;;;;;;9.32;7.28;;;;;;;-0.81;100.00;102060.56;701036;28;1081;-60
2023/04/03 00:09:33;;;;;;;9.03;7.23;;;;;;;-0.87;100.00;102063.63;700374;28;1130;-60
2023/04/03 00:09:56;;;;;;;11.10;8.00;;;;;;;-0.90;100.00;102058.25;698843;28;4409;-60
2023/04/03 00:10:16;;;;;;;11.68;7.88;;;;;;;-0.89;100.00;102058.38;699676;28;970;-60
2023/04/03 00:10:37;;;;;;;9.60;7.65;;;;;;;-0.89;100.00;102058.38;700909;28;971;-60
2023/04/03 00:11:01;;;;;;;9.07;7.35;;;;;;;-0.86;100.00;102070.50;698204;28;1565;-60
2023/04/03 00:11:21;;;;;;;9.20;7.20;;;;;;;-0.87;100.00;102063.63;698561;28;1234;-60
2023/04/03 00:11:41;;;;;;;9.10;7.63;;;;;;;-0.87;100.00;102063.63;698551;28;912;-60
2023/04/03 00:12:02;;;;;;;8.90;7.63;;;;;;;-0.88;100.00;102059.25;697982;28;1474;-60
2023/04/03 00:12:22;;;;;;;9.20;7.45;;;;;;;-0.89;100.00;102057.47;698427;28;1035;-60
2023/04/03 00:12:43;;;;;;;8.70;7.60;;;;;;;-0.91;100.00;102054.81;699147;28;4321;-60
2023/04/03 00:13:04;;;;;;;8.80;7.63;;;;;;;-0.90;100.00;102060.81;702432;28;1601;-60
2023/04/03 00:13:25;;;;;;;9.15;7.35;;;;;;;-0.90;100.00;102060.81;703329;28;1188;-60
2023/04/03 00:13:47;;;;;;;9.25;7.13;;;;;;;-0.90;100.00;102053.13;702028;28;908;-60
2023/04/03 00:14:08;;;;;;;9.13;7.25;;;;;;;-0.95;100.00;102054.53;702248;28;944;-60
2023/04/03 00:14:28;;;;;;;9.97;7.70;;;;;;;-0.92;100.00;102049.59;699664;28;1201;-60
2023/04/03 00:14:48;;;;;;;8.60;7.40;;;;;;;-0.94;100.00;102057.19;699718;28;1552;-60
2023/04/03 00:15:09;;;;;;;9.07;7.40;;;;;;;-0.94;100.00;102052.06;699196;28;964;-60
2023/04/03 00:15:30;;;;;;;9.38;7.75;;;;;;;-0.90;100.00;102059.16;701036;28;901;-60
2023/04/03 00:15:51;;;;;;;9.40;7.78;;;;;;;-0.88;100.00;102057.56;699291;28;4421;-59
2023/04/03 00:16:12;;;;;;;10.93;8.13;;;;;;;-0.86;100.00;102057.66;699635;28;1309;-60
2023/04/03 00:16:32;;;;;;;8.50;7.50;;;;;;;-0.86;100.00;102056.00;702133;28;3270;-59
2023/04/03 00:16:53;;;;;;;8.60;7.60;;;;;;;-0.85;100.00;102059.44;703185;28;1420;-60
2023/04/03 00:17:16;;;;;;;10.30;8.05;;;;;;;-0.84;100.00;102052.63;703453;28;801;-60
2023/04/03 00:17:36;;;;;;;9.32;7.93;;;;;;;-0.87;100.00;102061.94;702436;28;1011;-59
2023/04/03 00:17:56;;;;;;;9.10;7.73;;;;;;;-0.86;100.00;102065.38;702697;28;1583;-60
2023/04/03 00:18:19;;;;;;;10.10;7.93;;;;;;;-0.88;100.00;102059.25;702547;28;884;-61
2023/04/03 00:18:40;;;;;;;9.77;7.88;;;;;;;-0.88;100.00;102057.56;702992;28;4708;-60
2023/04/03 00:19:00;;;;;;;9.80;7.75;;;;;;;-0.86;100.00;102063.72;702279;28;1579;-60
2023/04/03 00:19:20;;;;;;;8.90;7.60;;;;;;;-0.87;100.00;102053.34;703657;28;1202;-60
2023/04/03 00:19:41;;;;;;;8.50;7.53;;;;;;;-0.91;100.00;102059.06;703012;28;888;-60
2023/04/03 00:20:02;;;;;;;9.00;7.50;;;;;;;-0.95;100.00;102057.09;701943;28;1535;-59
2023/04/03 00:20:23;;;;;;;8.98;7.70;;;;;;;-0.99;100.00;102061.13;699499;28;1542;-60
2023/04/03 00:20:44;;;;;;;8.68;7.30;;;;;;;-1.03;100.00;102062.59;700439;28;1262;-61
2023/04/03 00:21:05;;;;;;;9.53;7.70;;;;;;;-1.03;100.00;102057.47;700658;28;1750;-60
2023/04/03 00:21:25;;;;;;;10.23;7.50;;;;;;;-1.04;100.00;102060.84;700762;28;912;-60
2023/04/03 00:21:46;;;;;;;10.03;7.57;;;;;;;-1.01;100.00;102062.72;698650;28;4326;-59
2023/04/03 00:22:06;;;;;;;9.60;7.63;;;;;;;-1.01;100.00;102064.38;700969;28;884;-60
2023/04/03 00:22:28;;;;;;;10.20;8.03;;;;;;;-0.99;100.00;102063.69;703095;28;979;-60
2023/04/03 00:22:49;;;;;;;9.52;7.90;;;;;;;-0.96;100.00;102063.00;703692;28;1496;-60
2023/04/03 00:23:10;;;;;;;9.35;7.80;;;;;;;-0.96;100.00;102065.59;700661;28;868;-60
2023/04/03 00:23:30;;;;;;;9.40;7.40;;;;;;;-0.98;100.00;102062.00;699950;28;892;-60
2023/04/03 00:23:51;;;;;;;8.75;7.45;;;;;;;-0.99;100.00;102063.69;700664;28;1640;-60
2023/04/03 00:24:11;;;;;;;9.63;7.97;;;;;;;-0.96;100.00;102070.72;700352;28;1184;-60
2023/04/03 00:24:32;;;;;;;9.57;7.95;;;;;;;-0.99;100.00;102063.69;700546;28;1014;-60
2023/04/03 00:24:52;;;;;;;10.07;8.00;;;;;;;-0.98;100.00;102062.00;697911;28;4785;-59
2023/04/03 00:25:12;;;;;;;8.77;7.85;;;;;;;-1.01;100.00;102065.31;698821;28;1634;-60
2023/04/03 00:25:33;;;;;;;9.43;7.90;;;;;;;-1.03;100.00;102062.59;698859;28;915;-60
2023/04/03 00:25:53;;;;;;;8.95;7.70;;;;;;;-1.02;100.00;102058.38;695159;28;1442;-61
2023/04/03 00:26:14;;;;;;;8.63;7.60;;;;;;;-1.04;100.00;102058.28;694978;28;1922;-60
2023/04/03 00:26:34;;;;;;;9.25;7.70;;;;;;;-1.03;100.00;102064.28;696183;28;1534;-60
2023/04/03 00:26:55;;;;;;;9.60;7.70;;;;;;;-0.99;100.00;102061.13;698373;28;2178;-60
2023/04/03 00:27:15;;;;;;;9.48;7.70;;;;;;;-0.98;100.00;102069.72;699278;28;904;-60
2023/04/03 00:27:39;;;;;;;10.33;7.93;;;;;;;-1.05;100.00;102058.19;697887;28;1031;-60
2023/04/03 00:27:59;;;;;;;9.20;7.93;;;;;;;-1.09;100.00;102062.22;696831;28;4659;-60
2023/04/03 00:28:20;;;;;;;9.80;7.97;;;;;;;-1.06;100.00;102067.53;698842;28;892;-59
2023/04/03 00:28:40;;;;;;;10.17;7.97;;;;;;;-1.04;100.00;102065.97;697391;28;937;-60
2023/04/03 00:29:01;;;;;;;9.93;7.95;;;;;;;-1.04;100.00;102065.97;696648;28;1443;-60
2023/04/03 00:29:21;;;;;;;10.37;7.80;;;;;;;-1.03;100.00;102062.59;698743;28;1008;-60
2023/04/03 00:29:41;;;;;;;10.52;7.78;;;;;;;-1.01;100.00;102059.25;697145;28;868;-60
2023/04/03 00:30:02;;;;;;;9.93;7.70;;;;;;;-1.00;100.00;102064.47;695214;28;1019;-60
2023/04/03 00:30:23;;;;;;;8.45;7.32;;;;;;;-1.01;100.00;102059.25;696191;28;907;-59
2023/04/03 00:30:43;;;;;;;8.75;7.85;;;;;;;-1.06;100.00;102059.84;698176;28;4681;-59
2023/04/03 00:31:04;;;;;;;9.00;7.70;;;;;;;-1.11;100.00;102058.69;698079;28;1490;-60
2023/04/03 00:31:26;;;;;;;10.43;7.47;;;;;;;-1.13;100.00;102064.50;695099;28;888;-60
2023/04/03 00:31:47;;;;;;;10.80;7.68;;;;;;;-1.16;100.00;102067.75;693187;28;1660;-60
2023/04/03 00:32:07;;;;;;;10.17;7.93;;;;;;;-1.13;100.00;102064.50;692762;28;1141;-60
2023/04/03 00:32:28;;;;;;;10.23;8.07;;;;;;;-1.14;100.00;102057.56;690462;28;984;-60
2023/04/03 00:32:49;;;;;;;10.67;8.07;;;;;;;-1.17;100.00;102065.97;695008;28;1563;-60
2023/04/03 00:33:13;;;;;;;11.50;8.45;;;;;;;-1.14;100.00;102068.72;695763;28;897;-60
2023/04/03 00:33:34;;;;;;;10.38;8.13;;;;;;;-1.13;100.00;102062.81;696609;28;883;-60
2023/04/03 00:33:54;;;;;;;10.32;8.13;;;;;;;-1.16;100.00;102077.09;696037;28;4328;-60
2023/04/03 00:34:15;;;;;;;9.70;7.93;;;;;;;-1.15;100.00;102060.94;698146;28;1100;-60
2023/04/03 00:34:35;;;;;;;10.57;7.60;;;;;;;-1.14;100.00;102058.44;698258;28;1452;-60
2023/04/03 00:34:55;;;;;;;9.23;7.63;;;;;;;-1.14;100.00;102058.44;695269;28;1480;-60
2023/04/03 00:35:17;;;;;;;9.30;8.00;;;;;;;-1.16;100.00;102065.19;696014;28;1063;-60
2023/04/03 00:35:38;;;;;;;10.25;7.80;;;;;;;-1.15;100.00;102061.84;696109;28;821;-60
2023/04/03 00:35:58;;;;;;;10.95;8.20;;;;;;;-1.14;100.00;102063.59;696005;28;2156;-59
2023/04/03 00:36:21;;;;;;;10.03;7.83;;;;;;;-1.15;100.00;102060.94;695705;28;1327;-60
2023/04/03 00:36:41;;;;;;;10.95;8.07;;;;;;;-1.14;100.00;102058.44;696942;28;4354;-60
2023/04/03 00:37:02;;;;;;;11.40;8.00;;;;;;;-1.12;100.00;102062.03;696864;28;1514;-60
2023/04/03 00:37:22;;;;;;;9.85;8.00;;;;;;;-1.12;100.00;102066.25;697488;28;1011;-60
2023/04/03 00:37:43;;;;;;;9.63;7.80;;;;;;;-1.14;100.00;102061.03;697623;28;1142;-60
2023/04/03 00:38:04;;;;;;;9.23;7.80;;;;;;;-1.13;100.00;102065.38;696479;28;1539;-60
2023/04/03 00:38:24;;;;;;;10.26;7.66;;;;;;;-1.13;100.00;102061.94;698574;28;1263;-60
2023/04/03 00:38:45;;;;;;;10.27;8.07;;;;;;;-1.14;100.00;102066.16;698019;28;1510;-60
2023/04/03 00:39:06;;;;;;;10.13;8.02;;;;;;;-1.14;100.00;102053.31;692310;28;5479;-60
2023/04/03 00:39:27;;;;;;;9.43;8.00;;;;;;;-1.11;100.00;102057.78;693231;28;999;-60
2023/04/03 00:39:47;;;;;;;9.10;8.07;;;;;;;-1.12;100.00;102056.91;692712;28;5221;-60
2023/04/03 00:40:09;;;;;;;9.93;8.07;;;;;;;-1.09;100.00;102064.78;696324;28;821;-60
2023/04/03 00:40:35;;;;;;;9.68;8.10;;;;;;;-1.08;100.00;102060.53;697658;28;874;-60
2023/04/03 00:40:55;;;;;;;9.32;8.32;;;;;;;-1.08;100.00;102058.88;699337;28;1919;-60
2023/04/03 00:41:16;;;;;;;9.40;8.32;;;;;;;-1.07;100.00;102070.88;703950;28;979;-60
2023/04/03 00:41:36;;;;;;;9.27;8.20;;;;;;;-1.08;100.00;102057.97;699843;28;1012;-60
2023/04/03 00:41:57;;;;;;;8.90;7.80;;;;;;;-1.07;100.00;102057.19;700497;28;935;-60
2023/04/03 00:42:17;;;;;;;9.23;7.90;;;;;;;-1.08;100.00;102057.97;700313;28;900;-60
2023/04/03 00:42:40;;;;;;;9.02;7.97;;;;;;;-1.10;100.00;102055.31;699491;28;4696;-60
2023/04/03 00:43:00;;;;;;;10.00;8.05;;;;;;;-1.11;100.00;102058.69;700109;28;1563;-60
2023/04/03 00:43:26;;;;;;;10.03;8.03;;;;;;;-1.13;100.00;102062.81;700458;28;1151;-60
2023/04/03 00:43:46;;;;;;;10.30;8.15;;;;;;;-1.11;100.00;102056.13;694289;28;1609;-60
2023/04/03 00:44:37;;;;;;;9.30;8.27;;;;;;;-1.07;100.00;102060.63;694481;28;908;-60
2023/04/03 00:45:00;;;;;;;9.25;7.95;;;;;;;-1.14;100.00;102060.16;694574;28;1674;-60
2023/04/03 00:45:35;;;;;;;9.98;8.30;;;;;;;-1.13;100.00;102056.81;695340;28;928;-60
2023/04/03 00:45:58;;;;;;;10.25;7.97;;;;;;;-1.13;100.00;102060.25;696889;28;4417;-60
2023/04/03 00:46:21;;;;;;;9.43;7.88;;;;;;;-1.12;100.00;102059.47;696891;28;1963;-59
2023/04/03 00:46:41;;;;;;;10.70;8.13;;;;;;;-1.12;100.00;102058.56;698372;28;963;-60
2023/04/03 00:47:05;;;;;;;9.27;8.33;;;;;;;-1.11;100.00;102057.78;698305;28;1641;-60
2023/04/03 00:47:25;;;;;;;9.40;8.40;;;;;;;-1.11;100.00;102062.91;698639;28;1426;-60
2023/04/03 00:47:46;;;;;;;9.88;8.40;;;;;;;-1.12;100.00;102061.13;699579;28;1568;-60
2023/04/03 00:48:09;;;;;;;10.73;8.13;;;;;;;-1.12;100.00;102058.56;698558;28;1023;-60
2023/04/03 00:48:36;;;;;;;10.15;8.05;;;;;;;-1.14;100.00;102060.16;695364;28;1240;-60
2023/04/03 00:48:56;;;;;;;10.05;7.50;;;;;;;-1.17;100.00;102057.38;693279;28;4255;-60
2023/04/03 00:49:17;;;;;;;10.60;8.47;;;;;;;-1.19;100.00;102054.72;694236;28;1389;-60
2023/04/03 00:49:38;;;;;;;10.38;8.27;;;;;;;-1.18;100.00;102053.03;695958;28;1519;-60
2023/04/03 00:49:58;;;;;;;9.65;8.40;;;;;;;-1.18;100.00;102056.47;696238;28;1536;-60
2023/04/03 00:50:19;;;;;;;10.57;8.18;;;;;;;-1.18;100.00;102056.47;698457;28;943;-60
2023/04/03 00:50:42;;;;;;;10.02;7.65;;;;;;;-1.20;100.00;102055.50;698842;28;935;-60
2023/04/03 00:51:06;;;;;;;10.02;8.23;;;;;;;-1.20;100.00;102061.50;698299;28;1394;-60
2023/04/03 00:51:28;;;;;;;10.40;8.40;;;;;;;-1.17;100.00;102060.81;699218;28;1129;-60
2023/04/03 00:51:48;;;;;;;10.98;8.20;;;;;;;-1.16;100.00;102059.13;699387;28;4327;-60
2023/04/03 00:52:15;;;;;;;10.57;8.23;;;;;;;-1.15;100.00;102060.94;703026;28;958;-60
2023/04/03 00:52:37;;;;;;;9.25;8.05;;;;;;;-1.14;100.00;102063.59;702804;28;828;-59
2023/04/03 00:52:58;;;;;;;10.30;8.50;;;;;;;-1.16;100.00;102057.47;702274;28;1494;-60
2023/04/03 00:53:25;;;;;;;9.80;8.10;;;;;;;-1.15;100.00;102055.78;704173;28;1323;-60
2023/04/03 00:53:59;;;;;;;9.57;8.23;;;;;;;-1.15;100.00;102060.94;704332;28;1231;-59
2023/04/03 00:54:19;;;;;;;10.38;8.32;;;;;;;-1.18;100.00;102061.59;701979;28;1197;-60
2023/04/03 00:54:41;;;;;;;10.35;8.07;;;;;;;-1.17;100.00;102063.41;700905;28;4580;-60
2023/04/03 00:55:07;;;;;;;9.95;8.25;;;;;;;-1.18;100.00;102056.47;699863;28;1941;-60
2023/04/03 00:55:29;;;;;;;10.43;8.07;;;;;;;-1.15;100.00;102059.28;700412;28;1001;-60
2023/04/03 00:55:50;;;;;;;10.40;8.43;;;;;;;-1.20;100.00;102055.50;700363;28;1518;-60
2023/04/03 00:56:14;;;;;;;9.93;8.18;;;;;;;-1.17;100.00;102057.38;697101;28;920;-59
2023/04/03 00:56:37;;;;;;;9.85;8.32;;;;;;;-1.18;100.00;102055.59;700541;28;1491;-60
2023/04/03 00:56:58;;;;;;;9.55;8.35;;;;;;;-1.20;100.00;102058.06;701155;28;1513;-60
2023/04/03 00:57:18;;;;;;;10.27;8.37;;;;;;;-1.21;100.00;102053.72;697045;28;1309;-60
2023/04/03 00:57:38;;;;;;;10.30;8.25;;;;;;;-1.18;100.00;102063.31;696562;28;4296;-59
2023/04/03 00:58:00;;;;;;;10.70;8.47;;;;;;;-1.18;100.00;102059.03;696157;28;1754;-60
2023/04/03 00:58:25;;;;;;;10.25;8.40;;;;;;;-1.21;100.00;102057.16;696549;28;944;-60
2023/04/03 00:59:03;;;;;;;9.65;7.97;;;;;;;-1.20;100.00;102060.63;696845;28;1578;-60
2023/04/03 00:59:28;;;;;;;9.75;8.38;;;;;;;-1.21;100.00;102059.72;698567;28;1297;-60
2023/04/03 00:59:55;;;;;;;9.48;7.72;;;;;;;-1.18;100.00;102056.47;696334;28;1611;-59
2023/04/03 01:00:18;;;;;;;9.75;7.95;;;;;;;-1.18;100.00;102055.59;698799;28;904;-60
2023/04/03 01:00:42;;;;;;;9.52;8.27;;;;;;;-1.22;100.00;102057.97;695215;28;4325;-59
2023/04/03 01:01:06;;;;;;;9.90;8.20;;;;;;;-1.23;100.00;102056.19;695352;28;1519;-60
2023/04/03 01:01:28;;;;;;;9.02;8.10;;;;;;;-1.23;100.00;102057.88;693858;28;1370;-60
2023/04/03 01:01:49;;;;;;;10.15;8.20;;;;;;;-1.23;100.00;102056.19;698120;28;1554;-60
2023/04/03 01:02:10;;;;;;;9.80;8.60;;;;;;;-1.25;100.00;102056.88;695726;28;1920;-60
2023/04/03 01:02:30;;;;;;;10.32;8.70;;;;;;;-1.25;100.00;102054.31;695101;28;820;-60
2023/04/03 01:02:51;;;;;;;10.68;8.32;;;;;;;-1.25;100.00;102062.00;692564;28;1571;-60
2023/04/03 01:03:12;;;;;;;10.05;8.30;;;;;;;-1.25;100.00;102054.31;691595;28;1541;-60
2023/04/03 01:03:34;;;;;;;10.05;8.18;;;;;;;-1.26;100.00;102057.66;692268;28;1282;-60
2023/04/03 01:04:02;;;;;;;10.45;8.35;;;;;;;-1.29;100.00;102053.19;694014;28;4716;-60
2023/04/03 01:04:37;;;;;;;10.27;8.38;;;;;;;-1.28;100.00;102060.13;694173;28;1513;-60
2023/04/03 01:04:57;;;;;;;9.85;8.40;;;;;;;-1.31;100.00;102054.78;694444;28;1685;-60
2023/04/03 01:05:20;;;;;;;10.45;8.45;;;;;;;-1.33;100.00;102053.81;693286;28;1134;-60
2023/04/03 01:05:40;;;;;;;11.05;8.18;;;;;;;-1.30;100.00;102058.22;692725;28;1377;-60
2023/04/03 01:06:01;;;;;;;11.23;8.43;;;;;;;-1.28;100.00;102056.69;692797;28;1529;-60
2023/04/03 01:06:28;;;;;;;10.23;8.27;;;;;;;-1.29;100.00;102060.03;693119;28;1977;-60
2023/04/03 01:06:51;;;;;;;10.27;8.68;;;;;;;-1.28;100.00;102054.13;692175;28;4292;-60
2023/04/03 01:07:20;;;;;;;9.90;8.48;;;;;;;-1.30;100.00;102054.00;694255;28;1550;-60
2023/04/03 01:07:40;;;;;;;9.77;8.43;;;;;;;-1.29;100.00;102054.88;695257;28;928;-60
2023/04/03 01:08:01;;;;;;;10.55;9.00;;;;;;;-1.29;100.00;102063.47;696976;28;1386;-60
2023/04/03 01:08:22;;;;;;;10.65;8.70;;;;;;;-1.26;100.00;102047.38;693439;28;1366;-60
2023/04/03 01:08:44;;;;;;;10.35;8.38;;;;;;;-1.26;100.00;102053.44;692645;28;1361;-60
2023/04/03 01:09:05;;;;;;;10.05;8.63;;;;;;;-1.26;100.00;102058.56;693731;28;1474;-60
2023/04/03 01:09:26;;;;;;;9.88;8.55;;;;;;;-1.26;100.00;102057.66;696685;28;805;-60
2023/04/03 01:09:48;;;;;;;10.13;8.48;;;;;;;-1.30;100.00;102055.66;695095;28;4602;-60
2023/04/03 01:10:13;;;;;;;11.20;8.70;;;;;;;-1.31;100.00;102054.78;693090;28;1415;-60
2023/04/03 01:10:34;;;;;;;10.68;8.40;;;;;;;-1.30;100.00;102056.56;697058;28;810;-60
2023/04/03 01:10:54;;;;;;;11.37;8.63;;;;;;;-1.28;100.00;102051.53;698078;28;1568;-60
2023/04/03 01:11:16;;;;;;;10.55;8.73;;;;;;;-1.28;100.00;102057.56;698716;28;1376;-60
2023/04/03 01:11:37;;;;;;;10.05;8.35;;;;;;;-1.28;100.00;102054.13;695902;28;1655;-60
2023/04/03 01:12:31;;;;;;;10.83;8.67;;;;;;;-1.27;100.00;102058.47;695934;28;1543;-60
2023/04/03 01:12:52;;;;;;;10.75;8.70;;;;;;;-1.27;100.00;102051.63;684285;28;4440;-60
2023/04/03 01:13:40;;;;;;;10.30;8.60;;;;;;;-1.29;100.00;102055.78;696807;28;1329;-60
2023/04/03 01:14:01;;;;;;;11.13;9.10;;;;;;;-1.29;100.00;102052.31;697752;28;1525;-60
2023/04/03 01:14:22;;;;;;;11.18;9.05;;;;;;;-1.32;100.00;102050.44;697080;28;1254;-60
2023/04/03 01:14:43;;;;;;;10.73;8.50;;;;;;;-1.31;100.00;102056.47;697940;28;971;-60
2023/04/03 01:15:34;;;;;;;10.75;8.43;;;;;;;-1.32;100.00;102055.56;696367;28;1546;-60
2023/04/03 01:15:55;;;;;;;9.98;8.88;;;;;;;-1.28;100.00;102055.00;691938;28;4594;-60
2023/04/03 01:16:16;;;;;;;10.82;8.85;;;;;;;-1.27;100.00;102050.75;697134;28;838;-60
2023/04/03 01:16:36;;;;;;;10.97;8.80;;;;;;;-1.27;100.00;102055.91;698296;28;915;-60
2023/04/03 01:16:57;;;;;;;10.40;8.80;;;;;;;-1.29;100.00;102057.47;696681;28;942;-60
2023/04/03 01:17:45;;;;;;;11.30;8.77;;;;;;;-1.29;100.00;102052.31;694570;28;1261;-60
2023/04/03 01:18:05;;;;;;;10.27;8.77;;;;;;;-1.31;100.00;102054.78;694638;28;1502;-60
2023/04/03 01:18:26;;;;;;;10.23;8.73;;;;;;;-1.32;100.00;102053.00;694301;28;1002;-60
2023/04/03 01:18:46;;;;;;;9.55;8.50;;;;;;;-1.31;100.00;102053.91;693367;28;4284;-60
2023/04/03 01:19:15;;;;;;;9.90;8.88;;;;;;;-1.33;100.00;102058.94;696332;28;1274;-60
2023/04/03 01:19:40;;;;;;;10.52;8.85;;;;;;;-1.30;100.00;102055.66;697131;28;853;-59
2023/04/03 01:20:16;;;;;;;10.05;8.50;;;;;;;-1.32;100.00;102052.13;695140;28;1602;-60
2023/04/03 01:21:04;;;;;;;9.85;8.00;;;;;;;-1.34;100.00;102051.13;695274;28;2084;-60
2023/04/03 01:21:31;;;;;;;9.75;8.40;;;;;;;-1.32;100.00;102057.25;693190;28;1474;-60
2023/04/03 01:22:15;;;;;;;10.75;8.80;;;;;;;-1.32;100.00;102057.25;694433;28;4628;-60
2023/04/03 01:22:52;;;;;;;11.27;8.75;;;;;;;-1.34;100.00;102059.72;696205;28;1007;-60
2023/04/03 01:23:21;;;;;;;10.82;8.75;;;;;;;-1.30;100.00;102061.72;697213;28;1391;-60
2023/04/03 01:23:46;;;;;;;10.05;8.75;;;;;;;-1.30;100.00;102060.81;700922;28;825;-60
2023/04/03 01:24:28;;;;;;;9.88;8.68;;;;;;;-1.36;100.00;102056.16;700657;28;906;-60
2023/04/03 01:24:48;;;;;;;10.55;8.45;;;;;;;-1.35;100.00;102057.94;694162;28;4420;-60
2023/04/03 01:25:09;;;;;;;11.57;9.18;;;;;;;-1.34;100.00;102056.25;690413;28;1386;-60
2023/04/03 01:25:30;;;;;;;12.13;9.40;;;;;;;-1.32;100.00;102057.25;687518;28;1584;-60
2023/04/03 01:25:54;;;;;;;11.65;8.70;;;;;;;-1.33;100.00;102053.81;685849;28;1564;-60
2023/04/03 01:26:15;;;;;;;10.95;8.93;;;;;;;-1.33;100.00;102063.19;692802;28;2008;-60
2023/04/03 01:26:36;;;;;;;11.07;9.20;;;;;;;-1.34;100.00;102056.25;691782;28;943;-60
2023/04/03 01:26:56;;;;;;;10.63;8.70;;;;;;;-1.31;100.00;102065.06;693984;28;1577;-60
2023/04/03 01:27:17;;;;;;;10.70;8.68;;;;;;;-1.22;100.00;102055.41;696563;28;817;-60
2023/04/03 01:27:37;;;;;;;10.33;8.40;;;;;;;-1.13;100.00;102049.09;696073;28;1262;-60
2023/04/03 01:27:57;;;;;;;10.33;8.67;;;;;;;-1.13;100.00;102060.25;694881;28;4471;-60
2023/04/03 01:28:18;;;;;;;11.43;8.73;;;;;;;-1.15;100.00;102056.69;698780;28;832;-60
2023/04/03 01:28:38;;;;;;;11.03;9.10;;;;;;;-1.15;100.00;102059.28;698678;28;884;-60
2023/04/03 01:28:59;;;;;;;10.48;8.55;;;;;;;-1.17;100.00;102053.13;697806;28;1497;-60
2023/04/03 01:29:20;;;;;;;10.65;8.77;;;;;;;-1.14;100.00;102058.44;695945;28;1263;-60
2023/04/03 01:29:43;;;;;;;10.68;8.70;;;;;;;-1.15;100.00;102056.69;695832;28;1286;-60
2023/04/03 01:30:04;;;;;;;9.82;8.45;;;;;;;-1.15;100.00;102055.78;693315;28;1515;-60
2023/04/03 01:30:30;;;;;;;10.18;8.93;;;;;;;-1.16;100.00;102057.47;691321;28;1203;-60
2023/04/03 01:31:03;;;;;;;10.27;8.82;;;;;;;-1.21;100.00;102052.03;689450;28;4558;-60
2023/04/03 01:31:34;;;;;;;11.10;8.73;;;;;;;-1.25;100.00;102059.44;691626;28;1354;-60
2023/04/03 01:31:56;;;;;;;10.20;9.10;;;;;;;-1.27;100.00;102053.34;692324;28;1620;-60
2023/04/03 01:32:17;;;;;;;10.77;9.10;;;;;;;-1.27;100.00;102055.91;696937;28;858;-60
2023/04/03 01:32:38;;;;;;;10.90;9.23;;;;;;;-1.29;100.00;102057.47;695324;28;860;-60
2023/04/03 01:32:58;;;;;;;11.00;9.43;;;;;;;-1.27;100.00;102061.03;697141;28;1420;-60
2023/04/03 01:33:19;;;;;;;11.23;9.23;;;;;;;-1.29;100.00;102050.63;699398;28;820;-60
2023/04/03 01:33:42;;;;;;;11.25;8.90;;;;;;;-1.26;100.00;102057.66;698100;28;4535;-60
2023/04/03 01:34:02;;;;;;;11.80;9.00;;;;;;;-1.24;100.00;102053.53;697562;28;1431;-60
2023/04/03 01:34:27;;;;;;;10.85;8.90;;;;;;;-1.26;100.00;102058.56;695202;28;1498;-60
2023/04/03 01:34:47;;;;;;;10.23;8.70;;;;;;;-1.26;100.00;102053.44;694126;28;1625;-60
2023/04/03 01:35:09;;;;;;;10.55;9.00;;;;;;;-1.29;100.00;102058.34;691382;28;878;-60
2023/04/03 01:35:29;;;;;;;10.50;8.85;;;;;;;-1.31;100.00;102056.47;690452;28;908;-60
2023/04/03 01:35:50;;;;;;;10.15;8.80;;;;;;;-1.27;100.00;102058.47;686277;28;1510;-60
2023/04/03 01:36:21;;;;;;;11.20;9.23;;;;;;;-1.21;100.00;102056.28;689772;28;1639;-60
2023/04/03 01:36:41;;;;;;;11.23;9.20;;;;;;;-1.23;100.00;102050.19;691268;28;4667;-60
2023/04/03 01:37:02;;;;;;;10.82;9.02;;;;;;;-1.17;100.00;102060.81;692345;28;1324;-60
2023/04/03 01:37:22;;;;;;;11.73;9.10;;;;;;;-1.16;100.00;102054.91;695587;28;877;-60
2023/04/03 01:37:42;;;;;;;11.35;9.20;;;;;;;-1.21;100.00;102058.84;695840;28;1526;-59
2023/04/03 01:38:03;;;;;;;10.55;8.82;;;;;;;-1.21;100.00;102054.59;695459;28;1248;-60
2023/04/03 01:38:24;;;;;;;11.03;8.80;;;;;;;-1.18;100.00;102060.72;697419;28;1232;-60
2023/04/03 01:38:44;;;;;;;10.40;9.02;;;;;;;-1.18;100.00;102059.03;697350;28;904;-60
2023/04/03 01:39:05;;;;;;;11.03;8.87;;;;;;;-1.21;100.00;102057.16;694468;28;5088;-59
2023/04/03 01:39:26;;;;;;;11.88;9.02;;;;;;;-1.15;100.00;102055.78;694286;28;830;-60
2023/04/03 01:39:46;;;;;;;11.43;8.98;;;;;;;-1.15;100.00;102064.41;697224;28;4587;-60
2023/04/03 01:40:08;;;;;;;11.87;9.00;;;;;;;-1.17;100.00;102058.25;697717;28;1627;-60
2023/04/03 01:40:28;;;;;;;13.20;9.07;;;;;;;-1.15;100.00;102064.41;696406;28;1169;-60
2023/04/03 01:40:49;;;;;;;11.38;9.43;;;;;;;-1.16;100.00;102065.19;696716;28;1510;-60
2023/04/03 01:41:09;;;;;;;12.87;9.40;;;;;;;-1.20;100.00;102055.50;694397;28;1283;-59
2023/04/03 01:41:30;;;;;;;11.32;9.35;;;;;;;-1.20;100.00;102060.63;692727;28;1146;-60
2023/04/03 01:41:59;;;;;;;10.35;9.00;;;;;;;-1.21;100.00;102063.97;693000;28;1561;-59
2023/04/03 01:42:29;;;;;;;10.85;8.73;;;;;;;-1.21;100.00;102059.72;695282;28;860;-60
2023/04/03 01:42:49;;;;;;;10.52;9.00;;;;;;;-1.20;100.00;102058.06;694889;28;4356;-59
2023/04/03 01:43:10;;;;;;;11.37;9.50;;;;;;;-1.22;100.00;102065.66;698762;28;1097;-60
2023/04/03 01:43:30;;;;;;;13.30;9.07;;;;;;;-1.16;100.00;102061.72;698453;28;1124;-60
2023/04/03 01:43:51;;;;;;;12.83;9.00;;;;;;;-1.18;100.00;102061.59;698140;28;1586;-60
2023/04/03 01:44:12;;;;;;;10.68;9.00;;;;;;;-1.19;100.00;102059.84;695733;28;825;-60
2023/04/03 01:44:32;;;;;;;10.73;8.70;;;;;;;-1.16;100.00;102062.63;696114;28;892;-60
2023/04/03 01:44:52;;;;;;;10.23;8.77;;;;;;;-1.12;100.00;102059.47;695130;28;1567;-60
2023/04/03 01:45:13;;;;;;;10.68;8.82;;;;;;;-1.09;100.00;102062.22;695934;28;983;-60
2023/04/03 01:45:33;;;;;;;11.77;8.77;;;;;;;-1.06;100.00;102067.53;698292;28;978;-60
2023/04/03 01:45:54;;;;;;;11.60;8.75;;;;;;;-1.09;100.00;102066.47;697910;28;4409;-60
2023/04/03 01:46:19;;;;;;;10.68;8.70;;;;;;;-1.10;100.00;102060.44;698522;28;1968;-60